sensor_id;sensor_type;location;lat;lon;timestamp;P1;durP1;ratioP1;P2;durP2;ratioP2
29344;SDS011;16339;48.748;2.222;2024-02-26T00:26:38;26.10;;;10.25;;
29344;SDS011;16339;48.748;2.222;2024-02-26T00:32:31;20.23;;;7.65;;
29344;SDS011;16339;48.748;2.222;2024-02-26T00:55:30;12.30;;;6.68;;
29344;SDS011;16339;48.748;2.222;2024-02-26T00:58:54;16.17;;;6.18;;
29344;SDS011;16339;48.748;2.222;2024-02-26T01:05:19;17.77;;;5.32;;
29344;SDS011;16339;48.748;2.222;2024-02-26T01:15:06;14.63;;;4.43;;
29344;SDS011;16339;48.748;2.222;2024-02-26T01:20:18;23.60;;;5.13;;
29344;SDS011;16339;48.748;2.222;2024-02-26T01:22:47;31.45;;;5.15;;
29344;SDS011;16339;48.748;2.222;2024-02-26T01:25:16;21.85;;;4.93;;
29344;SDS011;16339;48.748;2.222;2024-02-26T01:27:45;19.73;;;5.45;;
29344;SDS011;16339;48.748;2.222;2024-02-26T01:30:14;28.00;;;4.90;;
29344;SDS011;16339;48.748;2.222;2024-02-26T01:32:43;17.27;;;4.45;;
29344;SDS011;16339;48.748;2.222;2024-02-26T01:35:12;19.35;;;4.20;;
29344;SDS011;16339;48.748;2.222;2024-02-26T01:37:44;27.45;;;4.18;;
29344;SDS011;16339;48.748;2.222;2024-02-26T01:40:12;28.23;;;4.47;;
29344;SDS011;16339;48.748;2.222;2024-02-26T01:42:45;23.67;;;4.00;;
29344;SDS011;16339;48.748;2.222;2024-02-26T01:45:14;18.67;;;3.90;;
29344;SDS011;16339;48.748;2.222;2024-02-26T01:47:47;22.15;;;3.47;;
29344;SDS011;16339;48.748;2.222;2024-02-26T01:50:17;19.75;;;3.15;;
29344;SDS011;16339;48.748;2.222;2024-02-26T01:52:50;14.07;;;3.05;;
29344;SDS011;16339;48.748;2.222;2024-02-26T01:55:19;23.40;;;4.32;;
29344;SDS011;16339;48.748;2.222;2024-02-26T01:57:50;21.38;;;3.40;;
29344;SDS011;16339;48.748;2.222;2024-02-26T02:00:20;18.60;;;3.00;;
29344;SDS011;16339;48.748;2.222;2024-02-26T02:02:50;21.67;;;3.47;;
29344;SDS011;16339;48.748;2.222;2024-02-26T02:05:20;20.08;;;2.60;;
29344;SDS011;16339;48.748;2.222;2024-02-26T02:07:52;23.45;;;3.70;;
29344;SDS011;16339;48.748;2.222;2024-02-26T02:10:21;21.85;;;3.13;;
29344;SDS011;16339;48.748;2.222;2024-02-26T02:12:50;26.90;;;3.30;;
29344;SDS011;16339;48.748;2.222;2024-02-26T02:15:19;22.10;;;3.28;;
29344;SDS011;16339;48.748;2.222;2024-02-26T02:17:48;16.13;;;2.75;;
29344;SDS011;16339;48.748;2.222;2024-02-26T02:20:17;18.38;;;3.03;;
29344;SDS011;16339;48.748;2.222;2024-02-26T02:22:49;19.83;;;2.83;;
29344;SDS011;16339;48.748;2.222;2024-02-26T02:25:18;20.42;;;3.28;;
29344;SDS011;16339;48.748;2.222;2024-02-26T02:27:46;17.15;;;3.13;;
29344;SDS011;16339;48.748;2.222;2024-02-26T02:30:15;26.30;;;3.17;;
29344;SDS011;16339;48.748;2.222;2024-02-26T02:32:44;26.35;;;3.35;;
29344;SDS011;16339;48.748;2.222;2024-02-26T02:35:13;19.27;;;3.22;;
29344;SDS011;16339;48.748;2.222;2024-02-26T02:37:42;17.45;;;2.28;;
29344;SDS011;16339;48.748;2.222;2024-02-26T02:40:13;21.75;;;3.95;;
29344;SDS011;16339;48.748;2.222;2024-02-26T02:42:42;28.55;;;3.47;;
29344;SDS011;16339;48.748;2.222;2024-02-26T02:45:11;20.60;;;2.65;;
29344;SDS011;16339;48.748;2.222;2024-02-26T02:47:40;16.65;;;2.72;;
29344;SDS011;16339;48.748;2.222;2024-02-26T02:50:09;12.35;;;3.33;;
29344;SDS011;16339;48.748;2.222;2024-02-26T02:52:37;21.25;;;3.08;;
29344;SDS011;16339;48.748;2.222;2024-02-26T02:55:06;13.80;;;3.13;;
29344;SDS011;16339;48.748;2.222;2024-02-26T02:57:38;37.78;;;3.60;;
29344;SDS011;16339;48.748;2.222;2024-02-26T03:00:08;24.08;;;3.70;;
29344;SDS011;16339;48.748;2.222;2024-02-26T03:02:38;25.60;;;3.65;;
29344;SDS011;16339;48.748;2.222;2024-02-26T03:05:08;26.42;;;3.53;;
29344;SDS011;16339;48.748;2.222;2024-02-26T03:07:37;31.00;;;3.50;;
29344;SDS011;16339;48.748;2.222;2024-02-26T03:10:06;20.67;;;3.20;;
29344;SDS011;16339;48.748;2.222;2024-02-26T03:12:38;18.15;;;4.00;;
29344;SDS011;16339;48.748;2.222;2024-02-26T03:15:07;19.60;;;3.58;;
29344;SDS011;16339;48.748;2.222;2024-02-26T03:17:37;24.08;;;3.75;;
29344;SDS011;16339;48.748;2.222;2024-02-26T03:20:06;30.48;;;4.35;;
29344;SDS011;16339;48.748;2.222;2024-02-26T03:22:38;34.58;;;4.00;;
29344;SDS011;16339;48.748;2.222;2024-02-26T03:25:07;23.67;;;3.45;;
29344;SDS011;16339;48.748;2.222;2024-02-26T03:27:38;28.17;;;4.75;;
29344;SDS011;16339;48.748;2.222;2024-02-26T03:30:08;25.90;;;2.85;;
29344;SDS011;16339;48.748;2.222;2024-02-26T03:32:38;34.33;;;3.78;;
29344;SDS011;16339;48.748;2.222;2024-02-26T03:35:07;28.88;;;4.03;;
29344;SDS011;16339;48.748;2.222;2024-02-26T03:37:36;35.20;;;4.50;;
29344;SDS011;16339;48.748;2.222;2024-02-26T03:40:05;20.17;;;3.67;;
29344;SDS011;16339;48.748;2.222;2024-02-26T03:42:35;25.67;;;4.10;;
29344;SDS011;16339;48.748;2.222;2024-02-26T03:45:07;26.50;;;4.20;;
29344;SDS011;16339;48.748;2.222;2024-02-26T03:47:37;28.92;;;4.10;;
29344;SDS011;16339;48.748;2.222;2024-02-26T03:50:07;31.08;;;3.65;;
29344;SDS011;16339;48.748;2.222;2024-02-26T03:52:36;26.58;;;4.75;;
29344;SDS011;16339;48.748;2.222;2024-02-26T03:55:05;19.52;;;4.10;;
29344;SDS011;16339;48.748;2.222;2024-02-26T03:57:34;28.55;;;3.38;;
29344;SDS011;16339;48.748;2.222;2024-02-26T04:00:07;20.40;;;3.70;;
29344;SDS011;16339;48.748;2.222;2024-02-26T04:02:37;31.75;;;3.78;;
29344;SDS011;16339;48.748;2.222;2024-02-26T04:05:08;19.30;;;3.55;;
29344;SDS011;16339;48.748;2.222;2024-02-26T04:07:38;30.52;;;3.50;;
29344;SDS011;16339;48.748;2.222;2024-02-26T04:10:10;23.85;;;3.70;;
29344;SDS011;16339;48.748;2.222;2024-02-26T04:12:40;25.40;;;3.30;;
29344;SDS011;16339;48.748;2.222;2024-02-26T04:15:12;12.52;;;2.78;;
29344;SDS011;16339;48.748;2.222;2024-02-26T04:17:40;36.80;;;4.85;;
29344;SDS011;16339;48.748;2.222;2024-02-26T04:20:13;22.90;;;3.85;;
29344;SDS011;16339;48.748;2.222;2024-02-26T04:22:42;18.08;;;3.80;;
29344;SDS011;16339;48.748;2.222;2024-02-26T04:25:11;14.75;;;3.38;;
29344;SDS011;16339;48.748;2.222;2024-02-26T04:27:40;31.70;;;3.55;;
29344;SDS011;16339;48.748;2.222;2024-02-26T04:30:12;16.95;;;3.63;;
29344;SDS011;16339;48.748;2.222;2024-02-26T04:32:42;19.77;;;3.30;;
29344;SDS011;16339;48.748;2.222;2024-02-26T04:35:11;22.83;;;4.13;;
29344;SDS011;16339;48.748;2.222;2024-02-26T04:37:39;17.55;;;3.22;;
29344;SDS011;16339;48.748;2.222;2024-02-26T04:40:08;27.95;;;3.00;;
29344;SDS011;16339;48.748;2.222;2024-02-26T04:42:38;28.45;;;3.45;;
29344;SDS011;16339;48.748;2.222;2024-02-26T04:45:07;13.10;;;3.22;;
29344;SDS011;16339;48.748;2.222;2024-02-26T04:47:39;23.65;;;3.63;;
29344;SDS011;16339;48.748;2.222;2024-02-26T04:50:08;26.15;;;4.35;;
29344;SDS011;16339;48.748;2.222;2024-02-26T04:52:37;23.95;;;3.35;;
29344;SDS011;16339;48.748;2.222;2024-02-26T04:55:06;22.98;;;3.25;;
29344;SDS011;16339;48.748;2.222;2024-02-26T04:57:35;17.00;;;3.60;;
29344;SDS011;16339;48.748;2.222;2024-02-26T05:00:04;18.05;;;3.25;;
29344;SDS011;16339;48.748;2.222;2024-02-26T05:02:36;20.65;;;3.40;;
29344;SDS011;16339;48.748;2.222;2024-02-26T05:05:24;21.02;;;3.63;;
29344;SDS011;16339;48.748;2.222;2024-02-26T05:08:33;27.35;;;3.75;;
29344;SDS011;16339;48.748;2.222;2024-02-26T05:14:00;20.35;;;3.40;;
29344;SDS011;16339;48.748;2.222;2024-02-26T05:16:32;31.35;;;4.43;;
29344;SDS011;16339;48.748;2.222;2024-02-26T05:19:03;21.70;;;3.30;;
29344;SDS011;16339;48.748;2.222;2024-02-26T05:21:32;23.40;;;3.97;;
29344;SDS011;16339;48.748;2.222;2024-02-26T05:24:01;23.25;;;4.20;;
29344;SDS011;16339;48.748;2.222;2024-02-26T05:26:30;12.30;;;2.75;;
29344;SDS011;16339;48.748;2.222;2024-02-26T05:28:59;23.73;;;3.58;;
29344;SDS011;16339;48.748;2.222;2024-02-26T05:31:28;18.80;;;3.97;;
29344;SDS011;16339;48.748;2.222;2024-02-26T05:33:57;26.00;;;4.45;;
29344;SDS011;16339;48.748;2.222;2024-02-26T05:36:28;18.88;;;3.67;;
29344;SDS011;16339;48.748;2.222;2024-02-26T05:38:58;21.75;;;3.55;;
29344;SDS011;16339;48.748;2.222;2024-02-26T05:41:29;13.30;;;3.70;;
29344;SDS011;16339;48.748;2.222;2024-02-26T05:43:58;24.15;;;4.15;;
29344;SDS011;16339;48.748;2.222;2024-02-26T05:46:27;17.40;;;3.90;;
29344;SDS011;16339;48.748;2.222;2024-02-26T05:48:59;16.85;;;3.95;;
29344;SDS011;16339;48.748;2.222;2024-02-26T05:51:30;19.70;;;4.13;;
29344;SDS011;16339;48.748;2.222;2024-02-26T05:53:59;23.77;;;3.72;;
29344;SDS011;16339;48.748;2.222;2024-02-26T05:56:28;19.42;;;4.68;;
29344;SDS011;16339;48.748;2.222;2024-02-26T05:58:56;26.75;;;4.97;;
29344;SDS011;16339;48.748;2.222;2024-02-26T06:01:25;18.33;;;3.83;;
29344;SDS011;16339;48.748;2.222;2024-02-26T06:03:54;23.42;;;4.07;;
29344;SDS011;16339;48.748;2.222;2024-02-26T06:06:23;22.10;;;4.72;;
29344;SDS011;16339;48.748;2.222;2024-02-26T06:08:54;17.88;;;4.45;;
29344;SDS011;16339;48.748;2.222;2024-02-26T06:11:23;13.32;;;4.00;;
29344;SDS011;16339;48.748;2.222;2024-02-26T06:13:52;20.85;;;4.80;;
29344;SDS011;16339;48.748;2.222;2024-02-26T06:16:21;33.70;;;5.45;;
29344;SDS011;16339;48.748;2.222;2024-02-26T06:18:50;25.10;;;4.95;;
29344;SDS011;16339;48.748;2.222;2024-02-26T06:21:18;26.48;;;5.72;;
29344;SDS011;16339;48.748;2.222;2024-02-26T06:23:47;41.13;;;6.75;;
29344;SDS011;16339;48.748;2.222;2024-02-26T06:26:18;33.30;;;5.80;;
29344;SDS011;16339;48.748;2.222;2024-02-26T06:28:47;25.05;;;5.00;;
29344;SDS011;16339;48.748;2.222;2024-02-26T06:31:17;26.10;;;5.10;;
29344;SDS011;16339;48.748;2.222;2024-02-26T06:33:47;24.70;;;5.38;;
29344;SDS011;16339;48.748;2.222;2024-02-26T06:36:16;42.67;;;6.13;;
29344;SDS011;16339;48.748;2.222;2024-02-26T06:38:45;30.95;;;6.20;;
29344;SDS011;16339;48.748;2.222;2024-02-26T06:41:14;22.40;;;5.57;;
29344;SDS011;16339;48.748;2.222;2024-02-26T06:43:45;25.80;;;4.85;;
29344;SDS011;16339;48.748;2.222;2024-02-26T06:46:14;23.92;;;5.60;;
29344;SDS011;16339;48.748;2.222;2024-02-26T06:48:43;24.90;;;6.05;;
29344;SDS011;16339;48.748;2.222;2024-02-26T06:51:11;18.48;;;6.45;;
29344;SDS011;16339;48.748;2.222;2024-02-26T06:53:40;20.00;;;6.07;;
29344;SDS011;16339;48.748;2.222;2024-02-26T06:56:09;18.27;;;5.43;;
29344;SDS011;16339;48.748;2.222;2024-02-26T06:58:35;22.63;;;5.75;;
29344;SDS011;16339;48.748;2.222;2024-02-26T07:01:06;30.58;;;5.30;;
29344;SDS011;16339;48.748;2.222;2024-02-26T07:03:36;22.10;;;5.53;;
29344;SDS011;16339;48.748;2.222;2024-02-26T07:06:04;22.52;;;5.10;;
29344;SDS011;16339;48.748;2.222;2024-02-26T07:08:33;23.60;;;5.30;;
29344;SDS011;16339;48.748;2.222;2024-02-26T07:11:02;25.23;;;5.38;;
29344;SDS011;16339;48.748;2.222;2024-02-26T07:13:35;18.75;;;5.60;;
29344;SDS011;16339;48.748;2.222;2024-02-26T07:16:04;25.20;;;6.85;;
29344;SDS011;16339;48.748;2.222;2024-02-26T07:18:37;18.77;;;5.68;;
29344;SDS011;16339;48.748;2.222;2024-02-26T07:21:08;37.80;;;6.22;;
29344;SDS011;16339;48.748;2.222;2024-02-26T07:23:37;30.35;;;6.47;;
29344;SDS011;16339;48.748;2.222;2024-02-26T07:26:05;23.83;;;6.65;;
29344;SDS011;16339;48.748;2.222;2024-02-26T07:28:36;26.80;;;7.25;;
29344;SDS011;16339;48.748;2.222;2024-02-26T07:31:08;33.42;;;7.65;;
29344;SDS011;16339;48.748;2.222;2024-02-26T07:33:36;23.40;;;7.78;;
29344;SDS011;16339;48.748;2.222;2024-02-26T07:36:05;35.33;;;8.65;;
29344;SDS011;16339;48.748;2.222;2024-02-26T07:38:34;37.65;;;8.82;;
29344;SDS011;16339;48.748;2.222;2024-02-26T07:41:04;34.58;;;9.10;;
29344;SDS011;16339;48.748;2.222;2024-02-26T07:43:33;33.83;;;9.50;;
29344;SDS011;16339;48.748;2.222;2024-02-26T07:46:02;31.80;;;10.00;;
29344;SDS011;16339;48.748;2.222;2024-02-26T07:48:34;31.52;;;9.02;;
29344;SDS011;16339;48.748;2.222;2024-02-26T07:51:03;34.75;;;8.35;;
29344;SDS011;16339;48.748;2.222;2024-02-26T07:53:32;39.35;;;8.70;;
29344;SDS011;16339;48.748;2.222;2024-02-26T07:56:01;31.25;;;8.35;;
29344;SDS011;16339;48.748;2.222;2024-02-26T07:58:30;22.23;;;8.00;;
29344;SDS011;16339;48.748;2.222;2024-02-26T08:00:59;27.50;;;8.27;;
29344;SDS011;16339;48.748;2.222;2024-02-26T08:03:42;31.02;;;8.43;;
29344;SDS011;16339;48.748;2.222;2024-02-26T08:12:57;31.08;;;7.28;;
29344;SDS011;16339;48.748;2.222;2024-02-26T08:15:30;36.22;;;7.45;;
29344;SDS011;16339;48.748;2.222;2024-02-26T08:17:59;27.65;;;7.15;;
29344;SDS011;16339;48.748;2.222;2024-02-26T08:20:31;19.92;;;5.63;;
29344;SDS011;16339;48.748;2.222;2024-02-26T08:23:00;18.63;;;5.25;;
29344;SDS011;16339;48.748;2.222;2024-02-26T08:25:29;20.98;;;5.45;;
29344;SDS011;16339;48.748;2.222;2024-02-26T08:37:13;25.77;;;5.22;;
29344;SDS011;16339;48.748;2.222;2024-02-26T08:40:12;14.45;;;4.88;;
29344;SDS011;16339;48.748;2.222;2024-02-26T09:20:06;21.08;;;5.97;;
29344;SDS011;16339;48.748;2.222;2024-02-26T09:35:26;18.60;;;5.47;;
29344;SDS011;16339;48.748;2.222;2024-02-26T09:43:58;18.63;;;6.87;;
29344;SDS011;16339;48.748;2.222;2024-02-26T10:13:19;20.02;;;5.57;;
29344;SDS011;16339;48.748;2.222;2024-02-26T10:15:49;15.35;;;5.18;;
29344;SDS011;16339;48.748;2.222;2024-02-26T10:18:17;28.85;;;7.10;;
29344;SDS011;16339;48.748;2.222;2024-02-26T10:20:58;19.00;;;6.93;;
29344;SDS011;16339;48.748;2.222;2024-02-26T10:23:30;20.80;;;8.60;;
29344;SDS011;16339;48.748;2.222;2024-02-26T10:26:04;17.38;;;8.27;;
29344;SDS011;16339;48.748;2.222;2024-02-26T10:32:11;18.70;;;6.03;;
29344;SDS011;16339;48.748;2.222;2024-02-26T10:34:40;20.35;;;8.30;;
29344;SDS011;16339;48.748;2.222;2024-02-26T10:39:51;16.42;;;6.80;;
29344;SDS011;16339;48.748;2.222;2024-02-26T10:40:25;21.50;;;9.57;;
29344;SDS011;16339;48.748;2.222;2024-02-26T10:42:57;21.92;;;9.82;;
29344;SDS011;16339;48.748;2.222;2024-02-26T11:01:38;42.20;;;8.80;;
29344;SDS011;16339;48.748;2.222;2024-02-26T11:04:15;21.73;;;8.55;;
29344;SDS011;16339;48.748;2.222;2024-02-26T11:07:06;20.20;;;6.50;;
29344;SDS011;16339;48.748;2.222;2024-02-26T11:16:09;19.55;;;7.95;;
29344;SDS011;16339;48.748;2.222;2024-02-26T11:18:54;16.65;;;4.05;;
29344;SDS011;16339;48.748;2.222;2024-02-26T11:21:32;16.08;;;4.25;;
29344;SDS011;16339;48.748;2.222;2024-02-26T11:24:07;14.23;;;4.88;;
29344;SDS011;16339;48.748;2.222;2024-02-26T11:26:38;8.50;;;2.80;;
29344;SDS011;16339;48.748;2.222;2024-02-26T11:29:20;15.35;;;4.18;;
29344;SDS011;16339;48.748;2.222;2024-02-26T11:31:52;18.13;;;4.75;;
29344;SDS011;16339;48.748;2.222;2024-02-26T11:34:21;11.32;;;3.55;;
29344;SDS011;16339;48.748;2.222;2024-02-26T11:36:51;10.38;;;3.05;;
29344;SDS011;16339;48.748;2.222;2024-02-26T11:39:20;7.72;;;2.35;;
29344;SDS011;16339;48.748;2.222;2024-02-26T11:42:00;6.07;;;2.00;;
29344;SDS011;16339;48.748;2.222;2024-02-26T11:44:33;7.93;;;2.28;;
29344;SDS011;16339;48.748;2.222;2024-02-26T11:47:18;8.68;;;2.30;;
29344;SDS011;16339;48.748;2.222;2024-02-26T11:49:49;6.05;;;2.38;;
29344;SDS011;16339;48.748;2.222;2024-02-26T11:52:17;6.45;;;1.88;;
29344;SDS011;16339;48.748;2.222;2024-02-26T11:54:49;13.77;;;2.40;;
29344;SDS011;16339;48.748;2.222;2024-02-26T11:57:20;5.57;;;1.95;;
29344;SDS011;16339;48.748;2.222;2024-02-26T11:59:53;37.75;;;4.30;;
29344;SDS011;16339;48.748;2.222;2024-02-26T12:02:40;26.85;;;4.28;;
29344;SDS011;16339;48.748;2.222;2024-02-26T12:05:12;4.05;;;2.00;;
29344;SDS011;16339;48.748;2.222;2024-02-26T12:07:43;1.70;;;1.60;;
29344;SDS011;16339;48.748;2.222;2024-02-26T12:10:21;2.88;;;1.80;;
29344;SDS011;16339;48.748;2.222;2024-02-26T12:13:06;2.65;;;1.17;;
29344;SDS011;16339;48.748;2.222;2024-02-26T12:15:41;6.95;;;1.60;;
29344;SDS011;16339;48.748;2.222;2024-02-26T12:18:32;33.85;;;2.58;;
29344;SDS011;16339;48.748;2.222;2024-02-26T12:21:12;19.65;;;2.33;;
29344;SDS011;16339;48.748;2.222;2024-02-26T12:23:41;13.43;;;7.15;;
29344;SDS011;16339;48.748;2.222;2024-02-26T12:26:45;2.65;;;1.83;;
29344;SDS011;16339;48.748;2.222;2024-02-26T12:29:32;1.73;;;1.60;;
29344;SDS011;16339;48.748;2.222;2024-02-26T12:32:04;3.63;;;1.90;;
29344;SDS011;16339;48.748;2.222;2024-02-26T12:34:42;127.45;;;7.47;;
29344;SDS011;16339;48.748;2.222;2024-02-26T12:37:17;148.07;;;10.30;;
29344;SDS011;16339;48.748;2.222;2024-02-26T12:39:53;203.18;;;12.30;;
29344;SDS011;16339;48.748;2.222;2024-02-26T12:42:26;5.30;;;2.60;;
29344;SDS011;16339;48.748;2.222;2024-02-26T12:45:06;4.07;;;2.83;;
29344;SDS011;16339;48.748;2.222;2024-02-26T12:50:58;4.30;;;2.58;;
29344;SDS011;16339;48.748;2.222;2024-02-26T12:53:48;11.40;;;3.17;;
29344;SDS011;16339;48.748;2.222;2024-02-26T12:56:18;213.57;;;11.63;;
29344;SDS011;16339;48.748;2.222;2024-02-26T12:58:47;49.88;;;4.15;;
29344;SDS011;16339;48.748;2.222;2024-02-26T13:01:19;4.20;;;2.20;;
29344;SDS011;16339;48.748;2.222;2024-02-26T13:03:51;5.35;;;2.28;;
29344;SDS011;16339;48.748;2.222;2024-02-26T13:06:23;4.05;;;2.30;;
29344;SDS011;16339;48.748;2.222;2024-02-26T13:08:56;5.65;;;2.47;;
29344;SDS011;16339;48.748;2.222;2024-02-26T13:11:27;5.65;;;3.00;;
29344;SDS011;16339;48.748;2.222;2024-02-26T13:13:57;3.33;;;2.55;;
29344;SDS011;16339;48.748;2.222;2024-02-26T13:16:26;7.22;;;3.08;;
29344;SDS011;16339;48.748;2.222;2024-02-26T13:18:55;4.70;;;3.58;;
29344;SDS011;16339;48.748;2.222;2024-02-26T13:21:29;2.83;;;2.38;;
29344;SDS011;16339;48.748;2.222;2024-02-26T13:23:58;7.78;;;2.97;;
29344;SDS011;16339;48.748;2.222;2024-02-26T13:26:29;7.65;;;2.85;;
29344;SDS011;16339;48.748;2.222;2024-02-26T13:28:59;5.38;;;2.88;;
29344;SDS011;16339;48.748;2.222;2024-02-26T13:31:28;2.70;;;2.17;;
29344;SDS011;16339;48.748;2.222;2024-02-26T13:33:57;4.88;;;2.40;;
29344;SDS011;16339;48.748;2.222;2024-02-26T13:36:28;3.33;;;2.33;;
29344;SDS011;16339;48.748;2.222;2024-02-26T13:38:57;2.60;;;2.28;;
29344;SDS011;16339;48.748;2.222;2024-02-26T13:41:26;2.42;;;2.00;;
29344;SDS011;16339;48.748;2.222;2024-02-26T13:43:55;2.25;;;2.05;;
29344;SDS011;16339;48.748;2.222;2024-02-26T13:46:23;5.03;;;2.38;;
29344;SDS011;16339;48.748;2.222;2024-02-26T13:48:52;5.75;;;2.78;;
29344;SDS011;16339;48.748;2.222;2024-02-26T13:51:21;2.95;;;2.35;;
29344;SDS011;16339;48.748;2.222;2024-02-26T13:53:52;8.02;;;2.65;;
29344;SDS011;16339;48.748;2.222;2024-02-26T13:56:21;3.58;;;2.20;;
29344;SDS011;16339;48.748;2.222;2024-02-26T13:58:51;7.13;;;2.10;;
29344;SDS011;16339;48.748;2.222;2024-02-26T14:01:20;2.63;;;2.10;;
29344;SDS011;16339;48.748;2.222;2024-02-26T14:03:48;3.33;;;2.30;;
29344;SDS011;16339;48.748;2.222;2024-02-26T14:08:48;2.10;;;1.92;;
29344;SDS011;16339;48.748;2.222;2024-02-26T14:13:48;4.55;;;1.95;;
29344;SDS011;16339;48.748;2.222;2024-02-26T14:16:17;2.60;;;1.95;;
29344;SDS011;16339;48.748;2.222;2024-02-26T14:18:46;2.92;;;2.00;;
29344;SDS011;16339;48.748;2.222;2024-02-26T14:21:14;8.55;;;1.55;;
29344;SDS011;16339;48.748;2.222;2024-02-26T14:23:43;2.42;;;1.73;;
29344;SDS011;16339;48.748;2.222;2024-02-26T14:26:14;3.83;;;2.28;;
29344;SDS011;16339;48.748;2.222;2024-02-26T14:31:12;2.65;;;1.80;;
29344;SDS011;16339;48.748;2.222;2024-02-26T14:33:41;3.38;;;1.40;;
29344;SDS011;16339;48.748;2.222;2024-02-26T14:36:13;1.92;;;1.73;;
29344;SDS011;16339;48.748;2.222;2024-02-26T14:38:42;1.60;;;1.30;;
29344;SDS011;16339;48.748;2.222;2024-02-26T14:41:15;2.30;;;1.83;;
29344;SDS011;16339;48.748;2.222;2024-02-26T14:43:44;3.33;;;2.10;;
29344;SDS011;16339;48.748;2.222;2024-02-26T14:46:12;2.80;;;1.83;;
29344;SDS011;16339;48.748;2.222;2024-02-26T14:48:41;2.60;;;2.20;;
29344;SDS011;16339;48.748;2.222;2024-02-26T14:51:10;2.00;;;1.80;;
29344;SDS011;16339;48.748;2.222;2024-02-26T14:53:39;3.00;;;2.15;;
29344;SDS011;16339;48.748;2.222;2024-02-26T14:56:07;2.90;;;2.40;;
29344;SDS011;16339;48.748;2.222;2024-02-26T14:58:39;137.13;;;9.07;;
29344;SDS011;16339;48.748;2.222;2024-02-26T15:01:07;124.32;;;6.97;;
29344;SDS011;16339;48.748;2.222;2024-02-26T15:03:36;3.45;;;2.40;;
29344;SDS011;16339;48.748;2.222;2024-02-26T15:06:05;2.40;;;2.20;;
29344;SDS011;16339;48.748;2.222;2024-02-26T15:08:34;4.63;;;2.72;;
29344;SDS011;16339;48.748;2.222;2024-02-26T15:11:03;5.18;;;2.35;;
29344;SDS011;16339;48.748;2.222;2024-02-26T15:13:33;9.07;;;3.63;;
29344;SDS011;16339;48.748;2.222;2024-02-26T15:16:05;3.65;;;2.97;;
29344;SDS011;16339;48.748;2.222;2024-02-26T15:18:34;13.40;;;3.25;;
29344;SDS011;16339;48.748;2.222;2024-02-26T15:21:04;5.18;;;2.40;;
29344;SDS011;16339;48.748;2.222;2024-02-26T15:23:33;4.00;;;2.75;;
29344;SDS011;16339;48.748;2.222;2024-02-26T15:26:04;3.60;;;2.67;;
29344;SDS011;16339;48.748;2.222;2024-02-26T15:28:33;4.50;;;2.47;;
29344;SDS011;16339;48.748;2.222;2024-02-26T15:31:01;5.20;;;2.85;;
29344;SDS011;16339;48.748;2.222;2024-02-26T15:33:35;4.53;;;3.22;;
29344;SDS011;16339;48.748;2.222;2024-02-26T15:36:04;4.65;;;3.28;;
29344;SDS011;16339;48.748;2.222;2024-02-26T15:38:37;6.13;;;2.70;;
29344;SDS011;16339;48.748;2.222;2024-02-26T15:41:10;24.60;;;5.07;;
29344;SDS011;16339;48.748;2.222;2024-02-26T15:43:40;78.88;;;7.07;;
29344;SDS011;16339;48.748;2.222;2024-02-26T15:46:13;3.17;;;2.88;;
29344;SDS011;16339;48.748;2.222;2024-02-26T15:48:43;4.28;;;2.42;;
29344;SDS011;16339;48.748;2.222;2024-02-26T15:51:18;4.68;;;2.88;;
29344;SDS011;16339;48.748;2.222;2024-02-26T15:53:47;3.38;;;2.95;;
29344;SDS011;16339;48.748;2.222;2024-02-26T15:56:17;3.50;;;2.90;;
29344;SDS011;16339;48.748;2.222;2024-02-26T15:58:48;5.13;;;3.30;;
29344;SDS011;16339;48.748;2.222;2024-02-26T16:01:20;3.55;;;2.92;;
29344;SDS011;16339;48.748;2.222;2024-02-26T16:03:49;5.18;;;3.35;;
29344;SDS011;16339;48.748;2.222;2024-02-26T16:06:19;5.32;;;3.50;;
29344;SDS011;16339;48.748;2.222;2024-02-26T16:08:56;3.92;;;3.20;;
29344;SDS011;16339;48.748;2.222;2024-02-26T16:11:25;4.50;;;3.30;;
29344;SDS011;16339;48.748;2.222;2024-02-26T16:13:55;5.65;;;3.67;;
29344;SDS011;16339;48.748;2.222;2024-02-26T16:16:34;9.60;;;3.70;;
29344;SDS011;16339;48.748;2.222;2024-02-26T16:19:12;6.90;;;4.32;;
29344;SDS011;16339;48.748;2.222;2024-02-26T16:21:43;5.65;;;4.05;;
29344;SDS011;16339;48.748;2.222;2024-02-26T16:24:12;8.77;;;4.55;;
29344;SDS011;16339;48.748;2.222;2024-02-26T16:26:42;7.45;;;4.53;;
29344;SDS011;16339;48.748;2.222;2024-02-26T16:29:11;7.10;;;4.38;;
29344;SDS011;16339;48.748;2.222;2024-02-26T16:34:40;5.90;;;4.55;;
29344;SDS011;16339;48.748;2.222;2024-02-26T16:37:32;8.25;;;5.03;;
29344;SDS011;16339;48.748;2.222;2024-02-26T16:46:33;7.33;;;5.10;;
29344;SDS011;16339;48.748;2.222;2024-02-26T16:49:06;8.68;;;4.97;;
29344;SDS011;16339;48.748;2.222;2024-02-26T16:51:36;8.80;;;5.25;;
29344;SDS011;16339;48.748;2.222;2024-02-26T16:59:31;7.85;;;4.93;;
29344;SDS011;16339;48.748;2.222;2024-02-26T17:04:25;8.50;;;5.88;;
29344;SDS011;16339;48.748;2.222;2024-02-26T17:10:35;6.07;;;4.67;;
29344;SDS011;16339;48.748;2.222;2024-02-26T17:41:45;11.02;;;5.82;;
29344;SDS011;16339;48.748;2.222;2024-02-26T17:58:39;8.93;;;5.72;;
29344;SDS011;16339;48.748;2.222;2024-02-26T18:01:39;10.60;;;6.93;;
29344;SDS011;16339;48.748;2.222;2024-02-26T18:08:16;9.57;;;6.85;;
29344;SDS011;16339;48.748;2.222;2024-02-26T18:31:34;9.18;;;6.93;;
29344;SDS011;16339;48.748;2.222;2024-02-26T20:34:23;108.70;;;14.60;;
29344;SDS011;16339;48.748;2.222;2024-02-26T20:36:54;52.40;;;11.70;;
29344;SDS011;16339;48.748;2.222;2024-02-26T20:39:58;17.63;;;11.40;;
29344;SDS011;16339;48.748;2.222;2024-02-26T20:43:00;17.35;;;9.85;;
29344;SDS011;16339;48.748;2.222;2024-02-26T20:45:39;20.20;;;12.40;;
29344;SDS011;16339;48.748;2.222;2024-02-26T20:48:19;17.67;;;11.35;;
29344;SDS011;16339;48.748;2.222;2024-02-26T20:51:03;16.45;;;10.73;;
29344;SDS011;16339;48.748;2.222;2024-02-26T20:53:40;19.58;;;10.27;;
29344;SDS011;16339;48.748;2.222;2024-02-26T20:56:24;15.55;;;9.73;;
29344;SDS011;16339;48.748;2.222;2024-02-26T21:04:49;16.90;;;9.68;;
29344;SDS011;16339;48.748;2.222;2024-02-26T21:07:23;33.40;;;10.52;;
29344;SDS011;16339;48.748;2.222;2024-02-26T21:10:38;16.17;;;9.32;;
29344;SDS011;16339;48.748;2.222;2024-02-26T21:13:33;16.08;;;10.32;;
29344;SDS011;16339;48.748;2.222;2024-02-26T21:16:09;18.52;;;10.52;;
29344;SDS011;16339;48.748;2.222;2024-02-26T21:18:52;33.47;;;10.15;;
29344;SDS011;16339;48.748;2.222;2024-02-26T21:24:45;18.17;;;11.82;;
29344;SDS011;16339;48.748;2.222;2024-02-26T21:27:28;20.25;;;11.52;;
29344;SDS011;16339;48.748;2.222;2024-02-26T21:30:47;20.20;;;11.75;;
29344;SDS011;16339;48.748;2.222;2024-02-26T21:46:23;16.48;;;10.27;;
29344;SDS011;16339;48.748;2.222;2024-02-26T21:49:01;16.80;;;11.20;;
29344;SDS011;16339;48.748;2.222;2024-02-26T21:51:54;17.30;;;11.23;;
29344;SDS011;16339;48.748;2.222;2024-02-26T21:54:55;17.65;;;11.98;;
29344;SDS011;16339;48.748;2.222;2024-02-26T21:57:47;17.95;;;10.70;;
29344;SDS011;16339;48.748;2.222;2024-02-26T22:00:54;17.52;;;11.43;;
29344;SDS011;16339;48.748;2.222;2024-02-26T22:03:52;16.10;;;10.02;;
29344;SDS011;16339;48.748;2.222;2024-02-26T22:06:21;20.00;;;11.18;;
29344;SDS011;16339;48.748;2.222;2024-02-26T22:08:50;17.92;;;10.45;;
29344;SDS011;16339;48.748;2.222;2024-02-26T22:11:19;20.52;;;12.50;;
29344;SDS011;16339;48.748;2.222;2024-02-26T22:13:48;21.58;;;13.32;;
29344;SDS011;16339;48.748;2.222;2024-02-26T22:16:17;22.77;;;12.38;;
29344;SDS011;16339;48.748;2.222;2024-02-26T22:18:46;18.85;;;11.95;;
29344;SDS011;16339;48.748;2.222;2024-02-26T22:21:17;22.95;;;13.02;;